Time;durP1;ratioP1;P1;durP2;ratioP2;P2;SDS_P1;SDS_P2;PMS_P1;PMS_P2;Temp;Humidity;BMP_temperature;BMP_pressure;BME280_temperature;BME280_humidity;BME280_pressure;Samples;Min_cycle;Max_cycle;Signal;HPM_P1;HPM_P2
2022/04/02 00:01:14;;;;;;;9.87;9.37;;;;;;;10.02;74.25;91177.72;5033048;28;20206;-75
2022/04/02 00:03:40;;;;;;;9.43;8.70;;;;;;;10.28;72.28;91128.88;5031984;28;20249;-74
2022/04/02 00:06:05;;;;;;;8.63;8.33;;;;;;;9.80;75.93;91170.84;5031880;28;20215;-75
2022/04/02 00:08:31;;;;;;;8.30;8.00;;;;;;;9.93;74.23;91154.25;5033001;28;20245;-75
2022/04/02 00:10:57;;;;;;;9.00;8.53;;;;;;;9.84;72.28;91161.31;5032401;28;20187;-73
2022/04/02 00:13:23;;;;;;;8.93;8.63;;;;;;;10.27;69.90;91149.00;5031815;28;21024;-75
2022/04/02 00:15:49;;;;;;;8.10;7.80;;;;;;;10.02;72.60;91169.88;5032611;28;20275;-75
2022/04/02 00:18:14;;;;;;;8.30;8.00;;;;;;;9.91;68.80;91150.44;5030507;28;20238;-75
2022/04/02 00:20:40;;;;;;;8.77;8.47;;;;;;;10.04;67.03;91178.91;5031951;28;20214;-75
2022/04/02 00:25:49;;;;;;;8.03;7.83;;;;;;;9.94;68.05;91161.00;5030358;28;20193;-75
2022/04/02 00:28:15;;;;;;;7.80;7.60;;;;;;;9.90;66.16;91170.50;5030832;28;20226;-76
2022/04/02 00:30:41;;;;;;;7.20;7.00;;;;;;;9.80;66.56;91157.81;5031990;28;20193;-75
2022/04/02 00:33:06;;;;;;;8.07;7.87;;;;;;;9.90;66.81;91165.28;5030951;28;20237;-75
2022/04/02 00:35:31;;;;;;;8.43;8.13;;;;;;;9.97;67.42;91170.03;5031140;28;20218;-75
2022/04/02 00:37:57;;;;;;;8.57;8.27;;;;;;;10.01;65.89;91153.47;5029378;28;20211;-75
2022/04/02 00:40:22;;;;;;;8.23;7.93;;;;;;;9.93;66.20;91175.09;5030506;28;20202;-75
2022/04/02 00:42:48;;;;;;;8.23;7.93;;;;;;;9.91;65.80;91166.06;5030889;28;20280;-75
2022/04/02 00:45:13;;;;;;;8.70;8.30;;;;;;;9.92;64.80;91138.91;5032414;28;20183;-75
2022/04/02 00:47:39;;;;;;;8.87;8.47;;;;;;;9.95;65.98;91154.72;5031536;28;20194;-75
2022/04/02 00:50:05;;;;;;;8.17;7.97;;;;;;;9.96;66.87;91153.63;5030685;28;20222;-75
2022/04/02 00:52:31;;;;;;;7.87;7.67;;;;;;;9.72;66.99;91169.00;5030371;28;20226;-75
2022/04/02 00:54:56;;;;;;;7.93;7.53;;;;;;;9.87;66.93;91196.44;5029792;28;20238;-75
2022/04/02 00:57:22;;;;;;;8.97;8.67;;;;;;;9.80;66.89;91182.00;5030808;28;20237;-76
2022/04/02 00:59:49;;;;;;;8.80;8.50;;;;;;;9.75;66.54;91168.38;5030926;28;20238;-75
2022/04/02 01:02:15;;;;;;;8.73;8.27;;;;;;;9.91;65.76;91185.09;5056507;28;20217;-76
2022/04/02 01:04:41;;;;;;;8.43;8.10;;;;;;;10.12;63.69;91182.63;5031023;28;20258;-75
2022/04/02 01:07:07;;;;;;;8.77;8.37;;;;;;;10.29;62.72;91188.56;5031084;28;20195;-75
2022/04/02 01:09:32;;;;;;;7.93;7.63;;;;;;;9.96;63.63;91174.47;5029970;28;20265;-75
2022/04/02 01:11:58;;;;;;;9.40;8.80;;;;;;;10.00;64.75;91198.09;5032093;28;20737;-75
2022/04/02 01:14:24;;;;;;;7.90;7.60;;;;;;;9.97;63.92;91202.09;5030520;28;20245;-75
2022/04/02 01:16:50;;;;;;;8.90;8.50;;;;;;;10.01;64.04;91197.78;5030881;28;20221;-75
2022/04/02 01:19:16;;;;;;;8.13;7.87;;;;;;;10.19;62.57;91199.34;5031482;28;20234;-75
2022/04/02 01:21:48;;;;;;;7.10;6.90;;;;;;;10.16;64.27;91191.38;5031347;28;20190;-75
2022/04/02 01:24:14;;;;;;;7.87;7.67;;;;;;;9.92;64.65;91189.22;5030539;28;20226;-75
2022/04/02 01:26:39;;;;;;;8.47;8.17;;;;;;;9.74;62.36;91114.75;5030115;28;20316;-75
2022/04/02 01:29:06;;;;;;;8.23;7.73;;;;;;;9.93;64.93;91179.56;5029240;28;20222;-75
2022/04/02 01:31:33;;;;;;;7.57;7.37;;;;;;;9.88;66.31;91192.75;5030580;28;20250;-75
2022/04/02 01:33:59;;;;;;;8.03;7.73;;;;;;;10.17;63.96;91201.47;5029471;28;20240;-76
2022/04/02 01:36:25;;;;;;;7.03;6.83;;;;;;;10.26;62.30;91222.31;5030810;28;20213;-75
2022/04/02 01:38:51;;;;;;;8.80;8.50;;;;;;;10.03;64.57;91179.22;5030224;28;20234;-75
2022/04/02 01:41:17;;;;;;;12.13;11.00;;;;;;;9.94;65.03;91207.94;5029414;28;20258;-75
2022/04/02 01:43:43;;;;;;;8.73;8.43;;;;;;;10.01;65.21;91207.47;5028885;28;20297;-75
2022/04/02 01:46:10;;;;;;;8.47;8.03;;;;;;;9.97;63.82;91228.16;5031252;28;20230;-75
2022/04/02 01:48:36;;;;;;;8.47;8.17;;;;;;;9.81;63.46;91237.50;5030070;28;20234;-75
2022/04/02 01:51:02;;;;;;;8.67;8.17;;;;;;;9.98;62.56;91241.97;5031184;28;20202;-75
2022/04/02 01:53:29;;;;;;;7.63;7.43;;;;;;;9.89;62.91;91239.34;5032570;28;20235;-75
2022/04/02 01:55:54;;;;;;;7.83;7.63;;;;;;;9.84;62.38;91249.94;5031154;28;20218;-75
2022/04/02 01:58:20;;;;;;;8.23;8.00;;;;;;;9.92;62.61;91243.97;5030068;28;20354;-75
2022/04/02 02:00:46;;;;;;;10.67;9.87;;;;;;;9.73;63.59;91222.63;5030844;28;20194;-75
2022/04/02 02:03:12;;;;;;;8.53;8.23;;;;;;;9.93;63.26;91211.59;5029748;28;20227;-75
2022/04/02 02:05:39;;;;;;;7.80;7.43;;;;;;;9.56;63.65;91202.56;5029222;28;20198;-75
2022/04/02 02:08:05;;;;;;;9.17;8.40;;;;;;;9.60;64.67;91215.75;5030024;28;20226;-75
2022/04/02 02:10:31;;;;;;;8.17;7.87;;;;;;;9.61;63.38;91201.66;5030190;28;20194;-75
2022/04/02 02:12:57;;;;;;;8.37;8.07;;;;;;;9.64;62.29;91190.63;5029555;28;20198;-75
2022/04/02 02:15:23;;;;;;;8.10;7.80;;;;;;;9.70;61.65;91181.56;5030163;28;20203;-75
2022/04/02 02:17:49;;;;;;;7.77;7.47;;;;;;;9.66;63.96;91176.19;5029558;28;20190;-75
2022/04/02 02:20:16;;;;;;;8.37;8.07;;;;;;;9.67;62.05;91169.16;5031907;28;20193;-76
2022/04/02 02:22:43;;;;;;;7.03;6.83;;;;;;;9.60;63.18;91179.28;5028903;28;20183;-76
2022/04/02 02:25:12;;;;;;;7.43;7.13;;;;;;;9.64;64.05;91201.03;5029479;28;20191;-74
2022/04/02 02:27:40;;;;;;;7.87;7.67;;;;;;;9.63;63.64;91202.88;5029956;28;20191;-76
2022/04/02 02:30:07;;;;;;;7.63;7.43;;;;;;;9.68;63.40;91194.91;5029642;28;20245;-75
2022/04/02 02:32:36;;;;;;;7.80;7.50;;;;;;;9.64;63.47;91208.84;5029312;28;20190;-75
2022/04/02 02:38:06;;;;;;;8.37;8.10;;;;;;;9.59;63.31;91203.78;5030338;28;20194;-75
2022/04/02 02:40:31;;;;;;;8.30;8.00;;;;;;;9.57;63.44;91205.94;5030260;28;20191;-75
2022/04/02 02:42:57;;;;;;;7.17;6.97;;;;;;;9.71;63.14;91194.28;5053282;28;20190;-75
2022/04/02 02:45:41;;;;;;;7.07;6.87;;;;;;;9.65;62.73;91173.91;5028655;28;20195;-75
2022/04/02 02:48:07;;;;;;;8.40;8.10;;;;;;;9.53;62.36;91186.78;5029293;28;20226;-75
2022/04/02 02:50:33;;;;;;;7.67;7.47;;;;;;;9.64;61.51;91185.41;5030150;28;20205;-75
2022/04/02 02:52:59;;;;;;;8.17;7.73;;;;;;;9.59;63.66;91201.19;5032241;28;20221;-73
2022/04/02 02:55:25;;;;;;;7.83;7.57;;;;;;;9.50;64.64;91198.59;5032450;28;20218;-72
2022/04/02 02:57:50;;;;;;;8.33;8.03;;;;;;;9.44;63.56;91199.03;5032890;28;20191;-72
2022/04/02 03:00:19;;;;;;;8.07;7.77;;;;;;;9.74;61.73;91213.78;5031453;28;20214;-72
2022/04/02 03:02:44;;;;;;;7.83;7.53;;;;;;;9.65;62.43;91171.28;5032426;28;20207;-72
2022/04/02 03:05:12;;;;;;;7.70;7.40;;;;;;;9.75;60.02;91176.19;5033660;28;20195;-72
2022/04/02 03:07:38;;;;;;;7.77;7.57;;;;;;;9.82;59.80;91163.50;5032607;28;20838;-72
2022/04/02 03:10:05;;;;;;;7.47;7.17;;;;;;;9.70;61.59;91134.66;5031446;28;20218;-72
2022/04/02 03:12:30;;;;;;;8.00;7.77;;;;;;;9.75;60.62;91144.94;5033716;28;20186;-72
2022/04/02 03:14:56;;;;;;;9.00;8.70;;;;;;;9.73;60.89;91134.81;5032607;28;20326;-73
2022/04/02 03:17:21;;;;;;;7.53;7.33;;;;;;;9.67;61.78;91107.41;5032486;28;20217;-72
2022/04/02 03:19:47;;;;;;;8.10;7.90;;;;;;;9.72;60.95;91117.66;5032307;28;20237;-72
2022/04/02 03:22:12;;;;;;;7.77;7.47;;;;;;;9.68;60.65;91131.63;5033177;28;20187;-73
2022/04/02 03:24:38;;;;;;;7.13;6.93;;;;;;;9.70;61.19;91165.94;5033218;28;20226;-73
2022/04/02 03:27:04;;;;;;;8.50;8.10;;;;;;;9.68;61.31;91171.44;5032593;28;20202;-72
2022/04/02 03:29:30;;;;;;;8.47;7.97;;;;;;;9.59;61.77;91172.53;5032994;28;20242;-72
2022/04/02 03:31:55;;;;;;;8.87;8.57;;;;;;;9.63;60.75;91181.28;5032948;28;20221;-72
2022/04/02 03:34:21;;;;;;;7.73;7.43;;;;;;;9.54;61.74;91206.56;5031664;28;20250;-72
2022/04/02 03:36:46;;;;;;;7.67;7.47;;;;;;;9.57;61.82;91214.50;5032931;28;20193;-72
2022/04/02 03:39:12;;;;;;;7.90;7.60;;;;;;;9.73;60.22;91199.19;5032144;28;20226;-72
2022/04/02 03:41:37;;;;;;;9.00;8.53;;;;;;;9.63;61.27;91200.25;5032331;28;20267;-72
2022/04/02 03:44:03;;;;;;;8.53;8.13;;;;;;;9.59;61.21;91201.94;5032209;28;20233;-72
2022/04/02 03:49:13;;;;;;;8.40;8.10;;;;;;;9.65;60.19;91207.78;5032680;28;20237;-72
2022/04/02 03:51:39;;;;;;;7.53;7.33;;;;;;;9.70;60.58;91224.03;5033113;28;20202;-72
2022/04/02 03:54:04;;;;;;;8.37;8.13;;;;;;;9.73;60.19;91233.06;5032032;28;20226;-72
2022/04/02 03:56:30;;;;;;;8.23;7.87;;;;;;;10.02;57.74;91230.63;5032767;28;21590;-72
2022/04/02 03:58:55;;;;;;;8.87;8.50;;;;;;;9.91;61.12;91246.88;5032335;28;20795;-72
2022/04/02 04:01:22;;;;;;;8.50;8.10;;;;;;;9.69;60.10;91219.13;5031452;28;20751;-72
2022/04/02 04:03:47;;;;;;;7.40;7.20;;;;;;;9.68;59.50;91235.84;5031583;28;20231;-72
2022/04/02 04:06:12;;;;;;;10.13;9.47;;;;;;;9.59;62.36;91274.13;5031714;28;20213;-71
2022/04/02 04:08:40;;;;;;;8.57;8.27;;;;;;;9.64;61.46;91256.53;5031829;28;20238;-72
2022/04/02 04:11:06;;;;;;;7.97;7.67;;;;;;;9.76;59.19;91264.50;5031097;28;20236;-71
2022/04/02 04:13:31;;;;;;;7.43;7.23;;;;;;;9.89;59.69;91257.59;5026981;28;20234;-72
2022/04/02 04:15:57;;;;;;;7.73;7.53;;;;;;;9.41;60.28;91199.66;5033234;28;20218;-72
2022/04/02 04:18:23;;;;;;;7.97;7.67;;;;;;;9.84;59.83;91273.38;5029072;28;20297;-72
2022/04/02 04:20:49;;;;;;;8.07;7.83;;;;;;;9.72;61.53;91257.59;5029671;28;20210;-73
2022/04/02 04:23:15;;;;;;;7.67;7.47;;;;;;;9.58;59.47;91251.75;5029487;28;20230;-74
2022/04/02 04:25:40;;;;;;;8.53;8.23;;;;;;;9.66;58.92;91251.00;5026130;28;20198;-74
2022/04/02 04:28:06;;;;;;;7.83;7.53;;;;;;;9.84;60.17;91286.41;5026508;28;20239;-79
2022/04/02 04:30:32;;;;;;;8.97;8.47;;;;;;;9.84;59.49;91298.69;5027831;28;20196;-74
2022/04/02 04:32:57;;;;;;;8.87;8.57;;;;;;;10.11;55.61;91285.38;5023529;28;20189;-73
2022/04/02 04:35:24;;;;;;;8.73;8.23;;;;;;;10.06;57.03;91301.16;5027168;28;20234;-78
2022/04/02 04:37:51;;;;;;;7.53;7.33;;;;;;;10.00;59.22;91297.94;5027810;28;20179;-74
2022/04/02 04:40:17;;;;;;;8.17;7.80;;;;;;;10.03;57.58;91294.72;5027796;28;20214;-75
2022/04/02 04:42:43;;;;;;;7.77;7.47;;;;;;;9.97;59.00;91290.72;5028918;28;20199;-73
2022/04/02 04:45:13;;;;;;;8.57;8.17;;;;;;;9.81;59.38;91302.66;5028534;28;20190;-73
2022/04/02 04:47:44;;;;;;;7.97;7.60;;;;;;;9.96;58.78;91315.25;5027876;28;20195;-75
2022/04/02 04:50:09;;;;;;;8.13;7.83;;;;;;;9.90;59.15;91300.84;5029809;28;20224;-74
2022/04/02 04:52:35;;;;;;;7.83;7.63;;;;;;;10.01;60.09;91317.72;5028831;28;20190;-74
2022/04/02 04:55:01;;;;;;;7.70;7.43;;;;;;;10.04;58.92;91317.09;5029161;28;20227;-73
2022/04/02 04:57:27;;;;;;;7.47;7.27;;;;;;;9.99;59.89;91314.66;5029274;28;20203;-73
2022/04/02 04:59:52;;;;;;;8.07;7.77;;;;;;;9.98;58.97;91300.06;5026370;28;20230;-73
2022/04/02 05:02:20;;;;;;;9.13;8.83;;;;;;;9.96;59.21;91286.56;5030066;28;20194;-74
2022/04/02 05:04:46;;;;;;;8.33;8.03;;;;;;;10.08;59.06;91302.41;5029552;28;20221;-75
2022/04/02 05:07:12;;;;;;;7.83;7.63;;;;;;;10.17;58.51;91286.75;5029638;28;20183;-73
2022/04/02 05:09:39;;;;;;;9.07;8.63;;;;;;;9.82;58.46;91247.63;5029760;28;20230;-73
2022/04/02 05:12:06;;;;;;;8.80;8.50;;;;;;;10.37;56.90;91273.09;5029073;28;20187;-74
2022/04/02 05:14:32;;;;;;;8.97;8.57;;;;;;;10.21;57.27;91283.22;5027188;28;20242;-74
2022/04/02 05:16:57;;;;;;;8.83;8.53;;;;;;;10.13;56.92;91278.81;5027793;28;20178;-74
2022/04/02 05:19:23;;;;;;;8.87;8.57;;;;;;;10.19;56.69;91298.44;5026494;28;20237;-74
2022/04/02 05:21:48;;;;;;;9.30;9.00;;;;;;;10.33;55.27;91267.75;5028690;28;20674;-73
2022/04/02 05:24:14;;;;;;;8.17;7.87;;;;;;;10.42;55.95;91259.88;5028999;28;20230;-73
2022/04/02 05:26:39;;;;;;;8.47;8.17;;;;;;;10.40;54.58;91269.84;5029725;28;20214;-74
2022/04/02 05:29:05;;;;;;;8.93;8.63;;;;;;;10.39;54.55;91279.53;5028085;28;20234;-74
2022/04/02 05:31:30;;;;;;;9.10;8.80;;;;;;;10.30;54.07;91293.66;5028818;28;20267;-74
2022/04/02 05:33:56;;;;;;;9.03;8.73;;;;;;;10.40;54.72;91286.28;5028114;28;20238;-74
2022/04/02 05:36:21;;;;;;;8.87;8.27;;;;;;;10.20;55.27;91252.25;5027656;28;20191;-74
2022/04/02 05:38:47;;;;;;;8.80;8.33;;;;;;;10.40;54.31;91301.94;5030507;28;20241;-75
2022/04/02 05:41:12;;;;;;;8.47;8.17;;;;;;;10.31;55.57;91279.53;5029095;28;21012;-74
2022/04/02 05:43:38;;;;;;;7.87;7.67;;;;;;;10.28;54.92;91288.75;5029087;28;20246;-73
2022/04/02 05:46:03;;;;;;;8.53;8.23;;;;;;;10.51;54.02;91312.81;5028573;28;20179;-73
2022/04/02 05:48:30;;;;;;;8.17;7.87;;;;;;;10.54;54.29;91323.41;5028495;28;20245;-74
2022/04/02 05:50:56;;;;;;;9.30;8.90;;;;;;;10.52;55.01;91301.31;5030075;28;20197;-74
2022/04/02 05:53:21;;;;;;;8.13;7.93;;;;;;;10.42;55.13;91332.94;5028039;28;20222;-74
2022/04/02 05:55:48;;;;;;;7.50;7.30;;;;;;;10.41;54.63;91316.50;5026432;28;20218;-74
2022/04/02 05:58:13;;;;;;;7.83;7.63;;;;;;;10.35;53.51;91289.03;5029934;28;20221;-75
2022/04/02 06:00:40;;;;;;;8.43;8.13;;;;;;;10.37;54.64;91292.13;5029795;28;20178;-73
2022/04/02 06:03:06;;;;;;;8.30;8.00;;;;;;;10.46;54.74;91281.69;5025164;28;20314;-73
2022/04/02 06:05:32;;;;;;;8.93;8.57;;;;;;;10.27;54.55;91268.22;5029302;28;20191;-74
2022/04/02 06:07:57;;;;;;;10.00;9.60;;;;;;;10.33;54.78;91283.41;5025782;28;20190;-73
2022/04/02 06:10:22;;;;;;;8.77;8.47;;;;;;;10.39;54.81;91295.19;5026096;28;20205;-73
2022/04/02 06:12:50;;;;;;;9.27;8.97;;;;;;;10.59;54.58;91271.06;5027579;28;20282;-73
2022/04/02 06:15:16;;;;;;;10.23;9.73;;;;;;;10.73;53.16;91287.31;5027646;28;20222;-73
2022/04/02 06:17:41;;;;;;;7.87;7.53;;;;;;;10.81;53.10;91270.09;5029107;28;20270;-74
2022/04/02 06:20:07;;;;;;;8.93;8.63;;;;;;;10.99;52.45;91258.50;5026423;28;20253;-74
2022/04/02 06:22:34;;;;;;;8.00;7.80;;;;;;;11.08;52.37;91251.41;5024899;28;20187;-74
2022/04/02 06:25:00;;;;;;;8.73;8.43;;;;;;;11.32;52.67;91268.03;5025646;28;20294;-73
2022/04/02 06:27:25;;;;;;;8.47;8.17;;;;;;;11.39;52.38;91270.91;5025763;28;20279;-73
2022/04/02 06:29:51;;;;;;;8.63;8.33;;;;;;;11.25;52.37;91301.72;5025474;28;20285;-73
2022/04/02 06:32:17;;;;;;;8.37;8.07;;;;;;;11.28;52.50;91256.66;5025917;28;20198;-75
2022/04/02 06:34:43;;;;;;;8.37;8.07;;;;;;;11.32;52.40;91260.19;5024636;28;20226;-74
2022/04/02 06:37:09;;;;;;;8.43;8.13;;;;;;;11.46;51.88;91256.56;5026887;28;20212;-72
2022/04/02 06:39:35;;;;;;;8.57;8.27;;;;;;;11.42;50.87;91245.25;5027922;28;20250;-72
2022/04/02 06:42:00;;;;;;;8.90;8.60;;;;;;;11.46;50.88;91246.91;5027405;28;20191;-72
2022/04/02 06:44:29;;;;;;;8.33;8.03;;;;;;;11.54;50.63;91237.47;5025308;28;20233;-73
2022/04/02 06:46:56;;;;;;;8.50;8.20;;;;;;;11.52;51.01;91255.34;5028523;28;20208;-73
2022/04/02 06:49:22;;;;;;;9.30;8.80;;;;;;;11.75;50.65;91280.13;5026383;28;20294;-74
2022/04/02 06:51:47;;;;;;;8.63;8.33;;;;;;;11.83;50.59;91295.75;5027702;28;20904;-73
2022/04/02 06:54:12;;;;;;;9.07;8.77;;;;;;;11.77;49.29;91298.88;5027805;28;20226;-74
2022/04/02 06:56:38;;;;;;;8.17;7.87;;;;;;;11.77;50.18;91294.41;5026888;28;20219;-74
2022/04/02 06:59:05;;;;;;;9.10;8.50;;;;;;;11.95;49.63;91316.78;5028763;28;20234;-76
2022/04/02 07:01:30;;;;;;;9.10;8.70;;;;;;;11.88;49.93;91341.88;5027457;28;20193;-71
2022/04/02 07:03:56;;;;;;;8.47;8.17;;;;;;;12.05;50.38;91315.59;5025646;28;20235;-72
2022/04/02 07:06:21;;;;;;;7.40;7.10;;;;;;;11.99;49.84;91301.97;5027052;28;20185;-73
2022/04/02 07:08:46;;;;;;;8.67;8.37;;;;;;;12.30;50.47;91338.19;5027393;28;20229;-73
2022/04/02 07:11:12;;;;;;;7.73;7.47;;;;;;;12.45;49.15;91330.53;5027563;28;20224;-73
2022/04/02 07:13:37;;;;;;;8.93;8.53;;;;;;;12.35;48.28;91335.41;5027022;28;20238;-73
2022/04/02 07:16:03;;;;;;;8.83;8.53;;;;;;;12.49;47.91;91338.53;5026196;28;20214;-72
2022/04/02 07:18:30;;;;;;;8.50;8.10;;;;;;;12.85;48.06;91349.16;5025498;28;20227;-72
2022/04/02 07:20:58;;;;;;;9.30;9.00;;;;;;;12.77;47.14;91379.56;5026822;28;20191;-72
2022/04/02 07:23:24;;;;;;;7.97;7.77;;;;;;;12.73;47.03;91372.69;5026096;28;20247;-72
2022/04/02 07:25:50;;;;;;;7.90;7.47;;;;;;;12.74;47.68;91400.38;5028377;28;20192;-72
2022/04/02 07:28:15;;;;;;;8.43;8.13;;;;;;;12.74;47.80;91426.56;5027308;28;20245;-74
2022/04/02 07:30:41;;;;;;;9.37;9.07;;;;;;;12.95;46.47;91416.84;5026404;28;20249;-73
2022/04/02 07:33:07;;;;;;;9.03;8.67;;;;;;;13.06;47.55;91423.25;5027423;28;20232;-73
2022/04/02 07:35:49;;;;;;;7.90;7.60;;;;;;;13.31;46.07;91419.63;5027218;28;20752;-73
2022/04/02 07:38:21;;;;;;;8.63;8.30;;;;;;;13.26;46.13;91432.94;5029943;28;20269;-72
2022/04/02 07:41:11;;;;;;;7.93;7.63;;;;;;;13.66;45.18;91428.69;5030668;28;20202;-72
2022/04/02 07:43:41;;;;;;;8.37;8.07;;;;;;;13.42;46.45;91431.25;5029830;28;20298;-72
2022/04/02 07:46:16;;;;;;;7.90;7.60;;;;;;;13.87;44.98;91397.09;5029023;28;20202;-72
2022/04/02 07:48:45;;;;;;;8.70;8.40;;;;;;;13.89;43.98;91445.56;5031215;28;20256;-73
2022/04/02 07:51:14;;;;;;;8.70;8.33;;;;;;;12.98;45.96;91424.06;5030375;28;20179;-74
2022/04/02 07:53:48;;;;;;;7.90;7.60;;;;;;;13.83;44.27;91436.38;5032201;28;20286;-72
2022/04/02 07:56:19;;;;;;;8.30;8.00;;;;;;;13.36;45.08;91427.28;5030685;28;20202;-72
2022/04/02 07:58:49;;;;;;;7.63;7.33;;;;;;;13.65;45.56;91419.28;5030372;28;20235;-72
2022/04/02 08:01:18;;;;;;;8.47;8.17;;;;;;;13.14;46.22;91443.38;5029729;28;20179;-73
2022/04/02 08:03:45;;;;;;;9.63;9.13;;;;;;;12.71;46.99;91401.81;5030201;28;20286;-72
2022/04/02 08:06:13;;;;;;;8.67;8.37;;;;;;;13.00;46.12;91411.44;5029553;28;20195;-74
2022/04/02 08:08:40;;;;;;;8.83;8.53;;;;;;;13.10;44.91;91426.78;5026832;28;20226;-74
2022/04/02 08:11:08;;;;;;;8.63;8.33;;;;;;;13.29;45.91;91434.16;5029590;28;20191;-74
2022/04/02 08:13:36;;;;;;;8.87;8.47;;;;;;;13.56;44.20;91415.97;5027350;28;20230;-73
2022/04/02 08:16:01;;;;;;;9.53;9.03;;;;;;;14.03;43.82;91414.50;5026750;28;20222;-74
2022/04/02 08:18:27;;;;;;;8.80;8.07;;;;;;;13.99;43.40;91429.38;5028103;28;20248;-73
2022/04/02 08:20:54;;;;;;;8.33;8.03;;;;;;;14.04;46.31;91447.53;5028704;28;20187;-73
2022/04/02 08:23:20;;;;;;;8.03;7.73;;;;;;;14.07;41.69;91423.25;5029583;28;20314;-72
2022/04/02 08:26:13;;;;;;;8.30;8.00;;;;;;;13.99;44.76;91410.25;5028860;28;20175;-75
2022/04/02 08:28:51;;;;;;;8.23;7.93;;;;;;;14.34;43.07;91396.38;5051498;28;20266;-75
2022/04/02 08:31:37;;;;;;;9.50;9.07;;;;;;;14.37;42.89;91398.34;5029469;28;20311;-75
2022/04/02 08:34:28;;;;;;;6.77;6.57;;;;;;;14.43;43.80;91406.75;5029268;28;20218;-76
2022/04/02 08:37:27;;;;;;;9.13;8.83;;;;;;;14.07;44.27;91410.13;5027141;28;21274;-75
2022/04/02 08:40:08;;;;;;;8.20;7.90;;;;;;;14.82;44.48;91423.66;5014005;28;20253;-76
2022/04/02 08:42:57;;;;;;;7.87;7.60;;;;;;;14.06;42.70;91413.84;5027833;28;20198;-76
2022/04/02 08:45:28;;;;;;;8.27;7.97;;;;;;;14.20;42.38;91430.03;5026404;28;20210;-77
2022/04/02 08:48:21;;;;;;;8.90;8.47;;;;;;;14.08;44.33;91424.78;5026749;28;20207;-77
2022/04/02 08:50:48;;;;;;;7.50;7.30;;;;;;;14.49;42.68;91435.06;5054006;28;20199;-76
2022/04/02 08:53:20;;;;;;;8.57;8.17;;;;;;;14.87;42.11;91441.78;5028025;28;20206;-77
2022/04/02 08:55:48;;;;;;;9.30;8.40;;;;;;;14.40;41.65;91442.31;5029081;28;20248;-79
2022/04/02 08:59:00;;;;;;;11.47;9.97;;;;;;;14.57;42.61;91449.19;5028306;28;20246;-77
2022/04/02 09:01:52;;;;;;;8.37;8.07;;;;;;;15.01;42.96;91442.19;5026635;28;20669;-78
2022/04/02 09:04:39;;;;;;;9.93;9.43;;;;;;;15.12;42.34;91427.47;5022817;28;20867;-75
2022/04/02 09:07:57;;;;;;;8.63;8.27;;;;;;;14.72;41.59;91453.78;5025562;28;20190;-76
2022/04/02 09:10:38;;;;;;;8.87;8.37;;;;;;;14.77;42.20;91439.63;5023179;28;21315;-76
2022/04/02 09:13:25;;;;;;;8.17;7.87;;;;;;;14.32;41.64;91468.66;5025025;28;20822;-75
2022/04/02 09:16:01;;;;;;;9.20;8.67;;;;;;;14.52;43.34;91463.28;5026634;28;20748;-75
2022/04/02 09:18:54;;;;;;;9.03;8.63;;;;;;;14.36;43.03;91465.06;5024432;28;20218;-77
2022/04/02 09:21:29;;;;;;;9.60;9.20;;;;;;;14.12;43.19;91459.78;5027907;28;20277;-77
2022/04/02 09:24:13;;;;;;;9.50;9.00;;;;;;;14.20;43.30;91429.25;5027801;28;20249;-79
2022/04/02 09:27:08;;;;;;;8.03;7.73;;;;;;;14.37;43.90;91400.97;5050321;28;20199;-75
2022/04/02 09:30:09;;;;;;;9.90;9.23;;;;;;;14.72;44.43;91437.22;5026757;28;20230;-75
2022/04/02 09:32:59;;;;;;;8.53;8.23;;;;;;;14.63;43.44;91426.09;5025477;28;20199;-76
2022/04/02 09:35:34;;;;;;;8.27;7.97;;;;;;;14.66;43.65;91436.72;5028520;28;20238;-75
2022/04/02 09:38:37;;;;;;;8.07;7.77;;;;;;;14.94;42.72;91423.59;5027305;28;20186;-75
2022/04/02 09:41:17;;;;;;;8.43;8.03;;;;;;;14.53;41.75;91448.31;5027669;28;20221;-74
2022/04/02 09:43:56;;;;;;;8.73;8.43;;;;;;;14.82;42.55;91455.19;5028610;28;20211;-75
2022/04/02 09:46:41;;;;;;;8.53;8.23;;;;;;;14.21;40.97;91464.94;5028815;28;20261;-75
2022/04/02 09:49:26;;;;;;;8.90;8.23;;;;;;;14.16;42.32;91460.63;5028142;28;20245;-76
2022/04/02 09:52:01;;;;;;;9.27;8.87;;;;;;;14.13;44.03;91456.06;5025897;28;20190;-76
2022/04/02 09:54:26;;;;;;;10.43;10.03;;;;;;;14.51;45.71;91481.28;5027288;28;20222;-75
2022/04/02 09:57:18;;;;;;;9.70;9.30;;;;;;;14.32;44.37;91466.03;5028116;28;20214;-75
2022/04/02 10:00:06;;;;;;;7.83;7.53;;;;;;;14.00;44.33;91457.16;5029221;28;20241;-75
2022/04/02 10:02:57;;;;;;;9.23;8.83;;;;;;;14.24;45.05;91480.81;5030642;28;20195;-75
2022/04/02 10:05:30;;;;;;;8.47;8.17;;;;;;;14.27;43.24;91448.66;5029057;28;20207;-75
2022/04/02 10:08:11;;;;;;;8.90;8.60;;;;;;;14.31;41.71;91478.41;5028747;28;20246;-75
2022/04/02 10:10:37;;;;;;;8.93;8.63;;;;;;;14.45;40.72;91468.34;5052736;28;20191;-75
2022/04/02 10:13:03;;;;;;;8.83;8.53;;;;;;;14.34;39.76;91462.00;5028558;28;20230;-75
2022/04/02 10:15:31;;;;;;;8.87;8.47;;;;;;;14.60;39.03;91458.28;5028968;28;20234;-74
2022/04/02 10:18:02;;;;;;;7.97;7.57;;;;;;;14.58;39.65;91457.84;5028011;28;20250;-74
2022/04/02 10:20:29;;;;;;;8.37;8.07;;;;;;;14.73;39.95;91436.13;5027204;28;20210;-74
2022/04/02 10:23:14;;;;;;;8.00;7.70;;;;;;;14.77;37.93;91452.78;5026120;28;20251;-74
2022/04/02 10:26:07;;;;;;;8.30;8.00;;;;;;;14.98;38.01;91458.63;5028547;28;20217;-74
2022/04/02 10:28:49;;;;;;;7.30;7.10;;;;;;;14.64;39.33;91444.16;5027200;28;21242;-74
2022/04/02 10:31:35;;;;;;;7.83;7.53;;;;;;;14.47;38.97;91449.63;5028276;28;20179;-74
2022/04/02 10:34:07;;;;;;;7.97;7.53;;;;;;;15.56;41.63;91415.94;5027282;28;20939;-78
2022/04/02 10:36:39;;;;;;;8.03;7.73;;;;;;;14.48;38.34;91367.91;5028693;28;20202;-77
2022/04/02 10:39:06;;;;;;;7.20;6.93;;;;;;;15.01;39.95;91408.03;5028480;28;20222;-76
2022/04/02 10:41:35;;;;;;;7.90;7.70;;;;;;;15.35;38.77;91425.84;5028747;28;20199;-75
2022/04/02 10:44:10;;;;;;;8.97;8.63;;;;;;;15.24;39.07;91419.53;5028454;28;20233;-75
2022/04/02 10:46:39;;;;;;;7.80;7.50;;;;;;;15.41;37.36;91414.78;5027432;28;20216;-75
2022/04/02 10:49:07;;;;;;;9.57;9.10;;;;;;;15.36;36.57;91432.66;5025030;28;20228;-76
2022/04/02 10:51:38;;;;;;;7.73;7.47;;;;;;;15.17;35.83;91425.41;5029322;28;20188;-75
2022/04/02 10:54:08;;;;;;;9.23;8.83;;;;;;;14.96;36.41;91427.44;5025644;28;21221;-75
2022/04/02 10:56:43;;;;;;;8.20;7.90;;;;;;;14.77;37.37;91427.25;5027769;28;20217;-75
2022/04/02 10:59:10;;;;;;;8.80;8.27;;;;;;;14.91;38.08;91422.41;5025757;28;20234;-75
2022/04/02 11:01:41;;;;;;;7.20;7.00;;;;;;;14.51;38.15;91441.88;5028008;28;20191;-75
2022/04/02 11:04:23;;;;;;;8.87;8.47;;;;;;;14.30;42.31;91428.88;5024322;28;20266;-75
2022/04/02 11:06:49;;;;;;;8.87;8.57;;;;;;;14.24;42.38;91430.94;5023464;28;20219;-75
2022/04/02 11:09:41;;;;;;;8.17;7.87;;;;;;;13.94;42.97;91431.44;5029093;28;20218;-76
2022/04/02 11:12:07;;;;;;;7.97;7.67;;;;;;;13.74;48.72;91427.06;5028151;28;20210;-74
2022/04/02 11:14:40;;;;;;;7.90;7.60;;;;;;;14.03;50.82;91432.88;5032377;28;20241;-69
2022/04/02 11:17:06;;;;;;;9.27;8.87;;;;;;;13.86;50.91;91406.84;5031872;28;20179;-69
2022/04/02 11:19:56;;;;;;;8.67;8.27;;;;;;;14.51;48.43;91439.25;5031270;28;20241;-69
2022/04/02 11:22:35;;;;;;;9.53;9.10;;;;;;;14.85;51.69;91418.47;5030914;28;20198;-69
2022/04/02 11:25:07;;;;;;;8.40;8.10;;;;;;;14.59;51.77;91440.97;5031398;28;20233;-69
2022/04/02 11:27:38;;;;;;;7.93;7.63;;;;;;;14.90;51.06;91425.34;5030912;28;20186;-74
2022/04/02 11:30:08;;;;;;;7.43;7.13;;;;;;;15.45;52.31;91420.16;5030150;28;20222;-73
2022/04/02 11:32:43;;;;;;;8.63;8.13;;;;;;;13.92;48.65;91454.63;5031240;28;20199;-74
2022/04/02 11:35:17;;;;;;;8.80;8.50;;;;;;;13.82;48.07;91434.06;5031376;28;20924;-70
2022/04/02 11:38:10;;;;;;;7.83;7.53;;;;;;;14.72;49.14;91430.13;5030207;28;20186;-70
2022/04/02 11:40:47;;;;;;;7.90;7.60;;;;;;;14.34;46.71;91443.63;5032136;28;20193;-68
2022/04/02 11:43:13;;;;;;;8.80;7.97;;;;;;;14.80;47.71;91457.38;5031246;28;20234;-70
2022/04/02 11:45:40;;;;;;;7.90;7.60;;;;;;;13.94;47.13;91441.94;5028457;28;20191;-71
2022/04/02 11:48:16;;;;;;;8.63;8.23;;;;;;;12.85;50.43;91438.97;5029544;28;20240;-71
2022/04/02 11:50:44;;;;;;;8.73;8.30;;;;;;;12.23;52.19;91434.78;5030226;28;20779;-71
2022/04/02 11:53:13;;;;;;;8.30;8.00;;;;;;;11.52;54.90;91427.81;5030635;28;20229;-72
2022/04/02 11:55:40;;;;;;;8.03;7.73;;;;;;;11.22;60.50;91461.69;5032058;28;20241;-71
2022/04/02 11:58:13;;;;;;;9.20;8.80;;;;;;;10.76;63.12;91494.72;5028926;28;20237;-70